RJCW/WKJ METAR and TAF weather

Enter ICAO airport designator
Station Type Date Time Source
RJCW METAR 2019/12/10 09:00 UTC NOAA

RJCW 100900Z 17003KT 7000 -SHRA FEW010 BKN030 BKN040 02/01 Q1015


Station Type Date Time Source
RJCW Decoded METAR 2019/12/10 09:00 UTC NOAA

Wakkanai Airport, Japan (RJCW) 45-24N 141-48E 11M
Dec 10, 2019 - 04:00 AM EST / 2019.12.10 0900 UTC
Wind: from the S (170 degrees) at 3 MPH (3 KT):0
Visibility: 4 mile(s):0
Sky conditions: mostly cloudy
Weather: light rain showers
Temperature: 35 F (2 C)
Dew Point: 33 F (1 C)
Relative Humidity: 93%
Pressure (altimeter): 29.97 in. Hg (1015 hPa)
ob: RJCW 100900Z 17003KT 7000 -SHRA FEW010 BKN030 BKN040 02/01 Q1015
cycle: 9

Station Type Date Time Source
RJCW TAF UTC NOAA

Error!

Example: see airport list